Time;durP1;ratioP1;P1;durP2;ratioP2;P2;SDS_P1;SDS_P2;PMS_P1;PMS_P2;Temp;Humidity;BMP_temperature;BMP_pressure;BME280_temperature;BME280_humidity;BME280_pressure;Samples;Min_cycle;Max_cycle;Signal;HPM_P1;HPM_P2
2022/06/18 00:01:33;;;;;;;4.47;4.00;;;23.40;99.90;;;;;;4952653;29;20035;-77
2022/06/18 00:04:03;;;;;;;4.35;4.05;;;23.50;99.90;;;;;;4952571;29;20038;-77
2022/06/18 00:06:31;;;;;;;5.50;3.80;;;23.50;99.90;;;;;;4950354;28;20482;-77
2022/06/18 00:08:57;;;;;;;6.80;4.05;;;23.50;99.90;;;;;;4952701;29;20083;-77
2022/06/18 00:14:07;;;;;;;5.05;4.35;;;23.50;99.90;;;;;;4952005;29;20041;-78
2022/06/18 00:16:33;;;;;;;5.07;4.00;;;23.40;99.90;;;;;;4953105;28;20035;-77
2022/06/18 00:18:58;;;;;;;5.03;3.85;;;23.40;99.90;;;;;;4952199;29;20118;-77
2022/06/18 00:21:26;;;;;;;4.97;4.22;;;23.40;99.90;;;;;;4952423;29;20400;-77
2022/06/18 00:23:51;;;;;;;6.50;4.28;;;23.20;99.90;;;;;;4952531;29;20512;-77
2022/06/18 00:26:17;;;;;;;6.47;4.20;;;23.20;99.90;;;;;;4952448;29;20047;-77
2022/06/18 00:28:44;;;;;;;4.55;3.80;;;23.10;99.90;;;;;;4953614;28;20035;-78
2022/06/18 00:31:10;;;;;;;5.13;3.80;;;23.10;99.90;;;;;;4951620;29;20081;-77
2022/06/18 00:33:39;;;;;;;4.20;3.88;;;23.00;99.90;;;;;;4952107;29;20047;-77
2022/06/18 00:36:07;;;;;;;6.03;4.20;;;23.10;99.90;;;;;;4952122;29;20081;-77
2022/06/18 00:38:39;;;;;;;4.35;3.90;;;23.10;99.90;;;;;;4950882;29;20052;-77
2022/06/18 00:41:06;;;;;;;7.28;3.95;;;23.10;99.90;;;;;;4952446;28;20106;-77
2022/06/18 00:43:58;;;;;;;4.95;3.70;;;23.10;99.90;;;;;;4953329;29;20046;-77
2022/06/18 00:46:42;;;;;;;5.13;3.75;;;23.00;99.90;;;;;;4952654;29;20023;-77
2022/06/18 00:49:29;;;;;;;4.80;4.25;;;22.80;99.90;;;;;;4950806;29;20034;-77
2022/06/18 00:52:01;;;;;;;6.40;4.00;;;22.90;99.90;;;;;;4952099;29;20034;-77
2022/06/18 00:54:40;;;;;;;6.90;4.13;;;22.90;99.90;;;;;;4951927;29;20106;-77
2022/06/18 00:57:15;;;;;;;5.55;3.92;;;22.70;99.90;;;;;;4950406;29;20551;-77
2022/06/18 01:00:01;;;;;;;7.40;4.20;;;22.70;99.90;;;;;;4950898;29;20039;-77
2022/06/18 01:02:36;;;;;;;4.90;4.00;;;22.50;99.90;;;;;;4935932;29;20024;-77
2022/06/18 01:05:12;;;;;;;5.60;3.97;;;22.40;99.90;;;;;;4950410;28;20023;-77
2022/06/18 01:07:38;;;;;;;10.80;4.65;;;22.40;99.90;;;;;;4953526;29;20032;-77
2022/06/18 01:10:13;;;;;;;5.43;4.05;;;22.40;99.90;;;;;;4951854;29;20023;-77
2022/06/18 01:12:39;;;;;;;5.75;4.18;;;22.30;99.90;;;;;;4949014;28;20031;-78
2022/06/18 01:15:08;;;;;;;4.80;4.28;;;22.10;99.90;;;;;;4934784;29;20392;-77
2022/06/18 01:17:36;;;;;;;5.07;4.07;;;22.00;99.90;;;;;;4952041;28;20031;-77
2022/06/18 01:20:07;;;;;;;6.13;4.32;;;21.90;99.90;;;;;;4953049;29;20039;-77
2022/06/18 01:22:52;;;;;;;5.60;4.15;;;22.10;99.90;;;;;;4953169;29;20034;-77
2022/06/18 01:25:18;;;;;;;5.60;4.50;;;21.80;99.90;;;;;;4951700;29;20131;-77
2022/06/18 01:27:44;;;;;;;4.65;4.13;;;21.80;99.90;;;;;;4950567;28;20023;-77
2022/06/18 01:30:14;;;;;;;6.60;4.60;;;21.80;99.90;;;;;;4953662;29;20058;-77
2022/06/18 01:32:42;;;;;;;5.05;4.38;;;21.80;99.90;;;;;;4955311;29;20042;-77
2022/06/18 01:35:09;;;;;;;5.18;4.00;;;21.90;99.90;;;;;;4955483;28;20484;-77
2022/06/18 01:37:35;;;;;;;7.10;4.72;;;21.90;99.90;;;;;;4956810;29;20031;-77
2022/06/18 01:40:03;;;;;;;4.78;4.03;;;22.00;99.90;;;;;;4955087;29;20031;-77
2022/06/18 01:42:38;;;;;;;6.80;4.38;;;21.80;99.90;;;;;;4951737;29;20038;-77
2022/06/18 01:45:08;;;;;;;7.07;4.45;;;21.80;99.90;;;;;;4954338;28;20086;-77
2022/06/18 01:47:47;;;;;;;5.25;4.57;;;21.70;99.90;;;;;;4955222;29;20027;-77
2022/06/18 01:50:22;;;;;;;5.53;4.53;;;21.70;99.90;;;;;;4955039;29;20369;-77
2022/06/18 01:52:54;;;;;;;5.78;4.30;;;21.80;99.90;;;;;;4956096;28;20439;-77
2022/06/18 01:55:37;;;;;;;4.80;4.40;;;21.60;99.90;;;;;;4954895;29;20023;-77
2022/06/18 01:58:23;;;;;;;7.45;4.50;;;21.50;99.90;;;;;;4954651;29;20082;-77
2022/06/18 02:00:54;;;;;;;4.43;3.90;;;21.60;99.90;;;;;;4937389;29;20035;-77
2022/06/18 02:03:20;;;;;;;4.47;4.18;;;21.60;99.90;;;;;;4954791;29;20122;-77
2022/06/18 02:05:46;;;;;;;5.18;4.38;;;21.60;99.90;;;;;;4955065;29;20027;-77
2022/06/18 02:08:15;;;;;;;4.93;4.07;;;21.70;99.90;;;;;;4954805;29;20033;-77
2022/06/18 02:10:47;;;;;;;6.13;4.65;;;21.70;99.90;;;;;;4954393;28;20036;-77
2022/06/18 02:13:13;;;;;;;5.35;4.20;;;21.50;99.90;;;;;;4954526;29;20027;-77
2022/06/18 02:15:43;;;;;;;6.63;4.20;;;21.40;99.90;;;;;;4954625;28;20043;-76
2022/06/18 02:18:12;;;;;;;4.68;4.28;;;21.30;99.90;;;;;;4954280;28;20526;-77
2022/06/18 02:20:44;;;;;;;6.50;4.55;;;21.20;99.90;;;;;;4954519;29;20031;-77
2022/06/18 02:23:11;;;;;;;5.20;4.53;;;21.20;99.90;;;;;;4954769;29;20019;-77
2022/06/18 02:25:37;;;;;;;4.82;4.30;;;21.30;99.90;;;;;;4935991;29;20400;-77
2022/06/18 02:28:15;;;;;;;5.53;4.30;;;21.30;99.90;;;;;;4954532;29;20016;-77
2022/06/18 02:30:41;;;;;;;4.80;4.30;;;21.30;99.90;;;;;;4953129;29;20060;-77
2022/06/18 02:33:34;;;;;;;7.47;4.57;;;21.20;99.90;;;;;;4955541;29;20043;-77
2022/06/18 02:36:09;;;;;;;4.88;4.38;;;21.20;99.90;;;;;;4955631;29;20070;-77
2022/06/18 02:38:34;;;;;;;5.32;4.18;;;21.10;99.90;;;;;;4955579;29;20038;-77
2022/06/18 02:41:00;;;;;;;8.15;4.30;;;21.10;99.90;;;;;;4954981;28;20365;-77
2022/06/18 02:43:26;;;;;;;4.68;4.18;;;21.20;99.90;;;;;;4955900;29;20032;-77
2022/06/18 02:45:55;;;;;;;4.93;4.40;;;21.10;99.90;;;;;;4953786;29;20094;-77
2022/06/18 02:48:30;;;;;;;5.15;4.47;;;20.90;99.90;;;;;;4954120;28;20042;-77
2022/06/18 02:50:58;;;;;;;4.85;4.45;;;21.00;99.90;;;;;;4953987;29;20019;-77
2022/06/18 02:53:25;;;;;;;6.30;4.65;;;21.00;99.90;;;;;;4954001;29;20051;-77
2022/06/18 02:55:55;;;;;;;6.65;4.75;;;21.00;99.90;;;;;;4955529;29;20027;-78
2022/06/18 02:58:26;;;;;;;5.43;4.53;;;20.90;99.90;;;;;;4953627;29;20034;-77
2022/06/18 03:00:58;;;;;;;4.82;4.35;;;20.90;99.90;;;;;;4952148;29;20047;-77
2022/06/18 03:03:28;;;;;;;4.60;4.20;;;21.00;99.90;;;;;;4952795;28;20019;-77
2022/06/18 03:05:54;;;;;;;5.10;4.60;;;21.10;99.90;;;;;;4953756;29;20075;-77
2022/06/18 03:08:21;;;;;;;5.75;4.40;;;21.00;99.90;;;;;;4953550;29;20109;-77
2022/06/18 03:13:31;;;;;;;7.18;4.78;;;20.70;99.90;;;;;;4955015;29;20098;-77
2022/06/18 03:15:57;;;;;;;5.03;4.53;;;20.50;99.90;;;;;;4951723;29;20044;-77
2022/06/18 03:18:29;;;;;;;7.60;4.75;;;20.50;99.90;;;;;;4953422;29;20034;-77
2022/06/18 03:21:15;;;;;;;7.22;4.32;;;20.30;99.90;;;;;;4953430;29;20031;-77
2022/06/18 03:23:42;;;;;;;5.15;4.65;;;20.10;99.90;;;;;;4939954;29;20024;-77
2022/06/18 03:26:08;;;;;;;6.32;4.80;;;20.30;99.90;;;;;;4953977;29;20114;-77
2022/06/18 03:28:34;;;;;;;5.40;4.90;;;20.30;99.90;;;;;;4954887;29;20123;-77
2022/06/18 03:31:00;;;;;;;7.45;4.85;;;20.20;99.90;;;;;;4952237;28;20087;-77
2022/06/18 03:33:25;;;;;;;5.68;5.03;;;20.20;99.90;;;;;;4952293;28;20034;-76
2022/06/18 03:35:52;;;;;;;6.40;4.97;;;20.30;99.90;;;;;;4953238;29;20023;-77
2022/06/18 03:38:19;;;;;;;5.38;4.88;;;20.40;99.90;;;;;;4935758;29;20399;-77
2022/06/18 03:40:46;;;;;;;8.80;5.00;;;20.50;99.90;;;;;;4954295;28;20031;-77
2022/06/18 03:43:12;;;;;;;7.13;5.03;;;20.50;99.90;;;;;;4953081;29;20055;-77
2022/06/18 03:45:42;;;;;;;7.32;4.75;;;20.40;99.90;;;;;;4951191;28;20023;-77
2022/06/18 03:48:10;;;;;;;4.60;4.20;;;20.40;99.90;;;;;;4952771;29;20038;-77
2022/06/18 03:50:35;;;;;;;4.93;4.50;;;20.40;99.90;;;;;;4952819;29;20514;-76
2022/06/18 03:53:02;;;;;;;5.22;4.80;;;20.40;99.90;;;;;;4953029;28;20034;-77
2022/06/18 03:55:27;;;;;;;4.97;4.50;;;20.30;99.90;;;;;;4953502;29;20447;-75
2022/06/18 03:57:53;;;;;;;7.53;4.65;;;20.40;99.90;;;;;;4952650;29;20027;-77
2022/06/18 04:00:22;;;;;;;4.85;4.45;;;20.40;99.90;;;;;;4951656;28;20500;-78
2022/06/18 04:02:47;;;;;;;4.80;4.40;;;20.50;99.90;;;;;;4950593;28;20035;-77
2022/06/18 04:05:13;;;;;;;5.70;4.57;;;20.50;99.90;;;;;;4952712;29;20027;-76
2022/06/18 04:07:41;;;;;;;5.43;4.60;;;20.40;99.90;;;;;;4954383;29;20042;-77
2022/06/18 04:10:08;;;;;;;7.90;4.80;;;20.20;99.90;;;;;;4952536;29;20043;-77
2022/06/18 04:12:34;;;;;;;6.00;4.60;;;20.10;99.90;;;;;;4952339;28;20031;-77
2022/06/18 04:15:00;;;;;;;5.25;4.85;;;20.00;99.90;;;;;;4950667;29;20114;-77
2022/06/18 04:17:26;;;;;;;4.90;4.55;;;19.90;99.90;;;;;;4951692;29;20118;-77
2022/06/18 04:19:51;;;;;;;4.95;4.50;;;19.80;99.90;;;;;;4936991;29;20043;-77
2022/06/18 04:22:17;;;;;;;6.55;4.93;;;19.80;99.90;;;;;;4952107;29;20033;-77
2022/06/18 04:24:43;;;;;;;6.45;4.82;;;19.90;99.90;;;;;;4952304;29;20038;-77
2022/06/18 04:27:08;;;;;;;5.60;4.60;;;19.90;99.90;;;;;;4952415;29;20098;-77
2022/06/18 04:29:34;;;;;;;6.43;4.60;;;19.90;99.90;;;;;;4950946;28;20043;-77
2022/06/18 04:32:00;;;;;;;6.15;4.50;;;20.00;99.90;;;;;;4953496;29;20498;-77
2022/06/18 04:34:29;;;;;;;5.00;4.57;;;20.20;99.90;;;;;;4953168;29;20039;-77
2022/06/18 04:36:54;;;;;;;6.05;5.10;;;20.30;99.90;;;;;;4934608;29;20435;-77
2022/06/18 04:39:20;;;;;;;5.43;4.93;;;20.20;99.90;;;;;;4950034;29;20066;-77
2022/06/18 04:41:47;;;;;;;6.43;4.93;;;20.30;99.90;;;;;;4951232;29;20412;-77
2022/06/18 04:44:12;;;;;;;5.32;4.82;;;20.20;99.90;;;;;;4952155;29;20110;-77
2022/06/18 04:46:38;;;;;;;8.30;4.85;;;20.20;99.90;;;;;;4936163;29;20497;-77
2022/06/18 04:49:04;;;;;;;5.32;4.82;;;20.30;99.90;;;;;;4951911;29;20039;-76
2022/06/18 04:51:29;;;;;;;6.20;5.45;;;20.30;99.90;;;;;;4951367;29;20024;-77
2022/06/18 04:53:55;;;;;;;6.55;4.72;;;20.20;99.90;;;;;;4952177;29;20031;-77
2022/06/18 04:56:21;;;;;;;6.45;4.90;;;20.40;99.90;;;;;;4950695;29;20167;-76
2022/06/18 04:58:46;;;;;;;5.15;4.50;;;20.50;99.90;;;;;;4953105;28;20447;-77
2022/06/18 05:01:18;;;;;;;7.60;4.80;;;20.50;99.90;;;;;;4952029;29;20030;-77
2022/06/18 05:03:43;;;;;;;7.45;5.00;;;20.70;99.90;;;;;;4932485;29;20092;-77
2022/06/18 05:06:09;;;;;;;5.13;4.63;;;20.70;99.90;;;;;;4955497;29;20043;-77
2022/06/18 05:08:35;;;;;;;8.88;4.68;;;20.60;99.90;;;;;;4955839;28;20027;-77
2022/06/18 05:11:01;;;;;;;5.80;5.18;;;20.70;99.90;;;;;;4955674;29;20113;-77
2022/06/18 05:13:29;;;;;;;5.32;4.82;;;20.80;99.90;;;;;;4955589;28;20047;-77
2022/06/18 05:15:55;;;;;;;5.38;4.05;;;20.90;99.90;;;;;;4955738;28;20488;-77
2022/06/18 05:18:23;;;;;;;10.38;4.85;;;20.90;99.90;;;;;;4955517;29;20058;-77
2022/06/18 05:20:51;;;;;;;5.55;4.80;;;20.90;99.90;;;;;;4937044;29;20130;-76
2022/06/18 05:23:17;;;;;;;4.97;4.55;;;21.20;99.90;;;;;;4955549;29;20031;-77
2022/06/18 05:25:44;;;;;;;6.50;4.65;;;21.00;99.90;;;;;;4957586;28;20114;-76
2022/06/18 05:28:11;;;;;;;4.60;4.13;;;21.00;99.90;;;;;;4955465;29;20051;-77
2022/06/18 05:30:37;;;;;;;8.73;4.95;;;21.00;99.90;;;;;;4937954;29;20051;-77
2022/06/18 05:33:03;;;;;;;5.05;4.32;;;21.10;99.90;;;;;;4955249;29;20030;-76
2022/06/18 05:35:30;;;;;;;5.10;4.70;;;21.00;99.90;;;;;;4954331;29;20441;-77
2022/06/18 05:37:56;;;;;;;8.50;4.65;;;21.20;99.90;;;;;;4955659;28;20110;-77
2022/06/18 05:40:22;;;;;;;5.55;4.47;;;21.30;99.90;;;;;;4955134;29;20114;-77
2022/06/18 05:42:47;;;;;;;6.68;4.93;;;21.40;99.90;;;;;;4954674;29;20023;-77
2022/06/18 05:45:13;;;;;;;5.40;4.65;;;21.40;99.90;;;;;;4954816;29;20039;-77
2022/06/18 05:47:39;;;;;;;4.95;4.47;;;21.40;99.90;;;;;;4949740;29;20103;-81
2022/06/18 05:50:07;;;;;;;5.88;4.90;;;21.40;99.90;;;;;;4947758;29;20038;-80
2022/06/18 05:52:33;;;;;;;6.22;5.07;;;21.60;99.90;;;;;;4940956;28;20031;-79
2022/06/18 05:54:59;;;;;;;6.03;4.50;;;21.70;99.90;;;;;;4936421;29;20027;-78
2022/06/18 05:57:25;;;;;;;5.05;4.50;;;21.60;99.90;;;;;;4952594;29;20031;-78
2022/06/18 05:59:51;;;;;;;6.40;4.47;;;21.60;99.90;;;;;;4952475;29;20046;-78
2022/06/18 06:02:19;;;;;;;5.35;4.50;;;21.60;99.90;;;;;;4952169;29;20023;-79
2022/06/18 06:04:46;;;;;;;5.20;4.40;;;21.70;99.90;;;;;;4944175;29;20036;-77
2022/06/18 06:07:29;;;;;;;5.18;4.65;;;21.90;99.90;;;;;;4938918;29;20027;-78
2022/06/18 06:12:39;;;;;;;7.22;5.10;;;22.10;99.90;;;;;;4951810;28;20110;-77
2022/06/18 06:15:06;;;;;;;8.40;5.28;;;22.30;99.90;;;;;;4953085;28;20072;-77
2022/06/18 06:17:32;;;;;;;8.80;4.88;;;22.50;99.90;;;;;;4953431;29;20024;-77
2022/06/18 06:20:06;;;;;;;10.38;5.60;;;22.50;99.90;;;;;;4956065;29;20047;-77
2022/06/18 06:22:33;;;;;;;8.55;4.57;;;22.50;99.90;;;;;;4954367;28;20027;-77
2022/06/18 06:24:59;;;;;;;9.30;5.03;;;22.60;99.90;;;;;;4954030;29;20035;-77
2022/06/18 06:27:25;;;;;;;9.50;5.05;;;22.70;99.90;;;;;;4951835;29;20559;-77
2022/06/18 06:29:50;;;;;;;6.90;4.55;;;22.80;99.90;;;;;;4954187;29;20039;-77
2022/06/18 06:32:16;;;;;;;9.48;4.57;;;23.00;99.90;;;;;;4953772;29;20130;-78
2022/06/18 06:34:42;;;;;;;5.28;4.30;;;23.10;99.90;;;;;;4956232;29;20027;-77
2022/06/18 06:37:07;;;;;;;7.18;4.78;;;23.20;99.90;;;;;;4957030;28;20035;-78
2022/06/18 06:39:33;;;;;;;5.55;4.50;;;23.20;99.90;;;;;;4953550;29;20113;-77
2022/06/18 06:41:59;;;;;;;6.78;4.97;;;23.30;99.90;;;;;;4954002;29;20488;-78
2022/06/18 06:44:24;;;;;;;4.93;4.40;;;23.50;99.90;;;;;;4953864;29;20089;-78
2022/06/18 06:46:52;;;;;;;10.45;6.18;;;23.60;99.90;;;;;;4955619;29;20027;-78
2022/06/18 06:49:17;;;;;;;6.10;4.82;;;23.70;99.90;;;;;;4953762;29;20452;-78
2022/06/18 06:51:43;;;;;;;9.32;4.60;;;23.80;99.90;;;;;;4953504;28;20026;-78
2022/06/18 06:54:09;;;;;;;6.35;4.47;;;23.80;99.90;;;;;;4953902;29;20046;-78
2022/06/18 06:59:19;;;;;;;5.10;4.25;;;24.00;99.90;;;;;;4953629;29;20058;-78
2022/06/18 07:01:45;;;;;;;5.50;4.22;;;24.10;99.90;;;;;;4955500;29;20031;-78
2022/06/18 07:04:12;;;;;;;6.97;4.38;;;24.30;99.90;;;;;;4953615;29;20035;-78
2022/06/18 07:06:38;;;;;;;7.60;4.35;;;24.30;99.90;;;;;;4953525;29;20035;-78
2022/06/18 07:09:05;;;;;;;4.68;4.15;;;24.50;99.90;;;;;;4951555;28;20034;-78
2022/06/18 07:11:33;;;;;;;5.65;4.65;;;24.60;99.90;;;;;;4953612;29;20171;-78
2022/06/18 07:13:59;;;;;;;5.43;4.18;;;24.70;99.90;;;;;;4955264;29;20027;-78
2022/06/18 07:16:24;;;;;;;5.28;4.10;;;24.90;99.90;;;;;;4953644;29;20030;-78
2022/06/18 07:18:52;;;;;;;6.10;5.20;;;24.90;99.90;;;;;;4953178;29;20058;-77
2022/06/18 07:21:19;;;;;;;6.47;4.30;;;24.90;99.90;;;;;;4953254;29;20028;-77
2022/06/18 07:23:45;;;;;;;5.03;3.72;;;25.00;99.90;;;;;;4951545;28;20034;-78
2022/06/18 07:26:15;;;;;;;6.22;4.32;;;25.20;99.90;;;;;;4954387;28;20035;-78
2022/06/18 07:28:43;;;;;;;6.80;4.30;;;25.30;99.90;;;;;;4952057;28;20039;-78
2022/06/18 07:31:15;;;;;;;4.50;4.10;;;25.40;99.90;;;;;;4952434;29;20043;-78
2022/06/18 07:33:43;;;;;;;5.13;4.18;;;25.50;99.90;;;;;;4953171;28;20031;-80
2022/06/18 07:36:09;;;;;;;6.22;4.22;;;25.60;99.90;;;;;;4953113;29;20042;-78
2022/06/18 07:38:34;;;;;;;7.35;4.75;;;25.70;99.90;;;;;;4950730;29;20411;-78
2022/06/18 07:41:00;;;;;;;4.95;4.45;;;25.80;99.90;;;;;;4954642;29;20031;-78
2022/06/18 07:43:48;;;;;;;5.18;4.68;;;25.90;99.90;;;;;;4953513;29;20034;-79
2022/06/18 07:46:14;;;;;;;5.93;4.75;;;25.80;99.90;;;;;;4952436;28;20031;-79
2022/06/18 07:48:42;;;;;;;7.60;4.28;;;25.80;99.90;;;;;;4952861;29;20081;-77
2022/06/18 07:51:08;;;;;;;5.43;4.82;;;25.90;99.90;;;;;;4952834;29;20046;-78
2022/06/18 07:53:34;;;;;;;6.93;4.80;;;26.00;99.90;;;;;;4951434;28;20035;-78
2022/06/18 07:56:00;;;;;;;6.82;4.60;;;26.00;99.90;;;;;;4954151;28;20058;-78
2022/06/18 07:58:27;;;;;;;5.00;4.50;;;26.20;99.90;;;;;;4951887;29;20035;-78
2022/06/18 08:00:53;;;;;;;5.38;4.88;;;26.40;99.90;;;;;;4952166;29;20059;-78
2022/06/18 08:03:19;;;;;;;5.70;5.20;;;26.30;99.90;;;;;;4952525;29;20508;-79
2022/06/18 08:05:46;;;;;;;5.78;4.95;;;26.30;99.90;;;;;;4952785;29;20051;-78
2022/06/18 08:08:12;;;;;;;6.22;4.68;;;26.40;99.90;;;;;;4952057;28;20030;-78
2022/06/18 08:10:39;;;;;;;6.07;5.22;;;26.40;99.90;;;;;;4952364;29;20035;-78
2022/06/18 08:13:06;;;;;;;6.80;4.85;;;26.50;99.90;;;;;;4933643;29;20034;-78
2022/06/18 08:15:32;;;;;;;5.13;4.72;;;26.70;99.90;;;;;;4952089;29;20131;-78
2022/06/18 08:17:58;;;;;;;5.30;4.80;;;26.80;99.90;;;;;;4952453;29;20031;-78
2022/06/18 08:20:25;;;;;;;5.47;4.90;;;26.80;99.90;;;;;;4952303;29;20470;-78
2022/06/18 08:22:55;;;;;;;6.32;4.85;;;27.00;99.90;;;;;;4953579;29;20440;-78
2022/06/18 08:25:23;;;;;;;6.93;4.43;;;27.10;99.90;;;;;;4952001;28;20037;-78
2022/06/18 08:27:50;;;;;;;5.88;4.70;;;27.30;99.90;;;;;;4950173;28;20027;-78
2022/06/18 08:30:16;;;;;;;7.55;4.60;;;27.50;99.90;;;;;;4952132;29;20089;-78
2022/06/18 08:32:42;;;;;;;6.65;5.00;;;27.60;99.90;;;;;;4950682;28;20555;-78
2022/06/18 08:35:09;;;;;;;5.85;5.10;;;27.60;99.90;;;;;;4953110;29;20023;-78
2022/06/18 08:37:34;;;;;;;5.22;4.70;;;27.80;99.90;;;;;;4953235;28;20087;-78
2022/06/18 08:40:34;;;;;;;5.80;4.90;;;28.00;99.90;;;;;;4951917;29;20043;-78
2022/06/18 08:43:30;;;;;;;7.63;4.60;;;28.20;99.90;;;;;;4949847;28;20031;-78
2022/06/18 08:46:20;;;;;;;6.93;4.93;;;28.50;99.90;;;;;;4952070;29;20023;-78
2022/06/18 08:48:51;;;;;;;5.22;4.40;;;28.80;99.90;;;;;;4951870;29;20469;-78
2022/06/18 08:51:40;;;;;;;8.98;4.60;;;28.70;99.90;;;;;;4952226;29;20091;-78
2022/06/18 08:54:43;;;;;;;5.38;4.45;;;29.00;99.90;;;;;;4953194;28;20035;-78
2022/06/18 08:57:34;;;;;;;6.47;4.90;;;28.90;99.90;;;;;;4854035;29;20379;-78
2022/06/18 09:00:15;;;;;;;6.38;5.10;;;29.30;99.90;;;;;;4846322;29;20144;-78
2022/06/18 09:03:04;;;;;;;6.82;4.93;;;29.20;99.90;;;;;;4850278;29;20021;-79
2022/06/18 09:05:47;;;;;;;6.85;4.57;;;29.40;99.90;;;;;;4856152;29;20411;-79
2022/06/18 09:08:33;;;;;;;7.95;4.55;;;29.30;99.90;;;;;;4857068;29;20065;-79
2022/06/18 09:11:20;;;;;;;6.43;4.68;;;29.60;99.90;;;;;;4853764;29;20033;-79
2022/06/18 09:13:57;;;;;;;6.03;4.68;;;29.60;99.90;;;;;;4849926;29;20038;-79
2022/06/18 09:16:32;;;;;;;5.95;4.95;;;29.70;99.90;;;;;;4855089;29;20558;-79
2022/06/18 09:19:01;;;;;;;5.13;4.63;;;29.70;99.90;;;;;;4849795;29;20083;-79
2022/06/18 09:21:30;;;;;;;9.07;4.97;;;29.70;99.90;;;;;;4856847;29;20543;-80
2022/06/18 09:24:02;;;;;;;7.78;5.00;;;29.90;99.90;;;;;;4853458;29;20034;-80
2022/06/18 09:26:34;;;;;;;7.05;4.97;;;30.00;99.90;;;;;;4843076;29;20576;-78
2022/06/18 09:29:16;;;;;;;6.20;4.90;;;30.00;99.90;;;;;;4855171;29;20038;-78
2022/06/18 09:32:16;;;;;;;6.82;4.78;;;30.30;99.90;;;;;;4861762;29;20045;-78
2022/06/18 09:34:51;;;;;;;6.85;4.80;;;30.50;99.90;;;;;;4936887;29;20073;-79
2022/06/18 09:37:25;;;;;;;5.10;4.60;;;30.50;99.90;;;;;;4949654;28;20028;-79
2022/06/18 09:39:57;;;;;;;5.40;4.90;;;30.60;99.90;;;;;;4951417;29;20062;-79
2022/06/18 09:42:49;;;;;;;5.53;4.80;;;30.70;99.90;;;;;;4951337;28;20023;-79
2022/06/18 09:45:18;;;;;;;6.43;4.85;;;30.70;99.90;;;;;;4951520;28;20031;-78
2022/06/18 09:47:47;;;;;;;13.63;5.30;;;30.90;99.90;;;;;;4951702;29;20392;-79
2022/06/18 09:50:20;;;;;;;5.70;4.15;;;31.00;99.90;;;;;;4952518;28;20023;-78
2022/06/18 09:52:51;;;;;;;8.15;4.70;;;31.00;99.90;;;;;;4953959;28;20504;-79
2022/06/18 09:55:22;;;;;;;5.68;4.50;;;31.00;99.90;;;;;;4953727;29;20089;-79
2022/06/18 09:57:58;;;;;;;5.35;4.32;;;31.10;99.90;;;;;;4954833;28;20531;-78
2022/06/18 10:00:29;;;;;;;7.35;4.65;;;31.40;99.90;;;;;;4952092;28;20054;-79
2022/06/18 10:03:11;;;;;;;7.90;4.25;;;31.70;99.90;;;;;;4951421;29;20492;-79
2022/06/18 10:08:38;;;;;;;8.57;5.03;;;31.90;99.90;;;;;;4940346;29;20121;-78
2022/06/18 10:11:07;;;;;;;6.43;4.97;;;31.80;99.90;;;;;;4955654;29;20503;-78
2022/06/18 10:13:43;;;;;;;8.43;4.97;;;31.80;99.90;;;;;;4955836;29;20023;-78
2022/06/18 10:16:30;;;;;;;9.23;5.00;;;32.10;99.90;;;;;;4952123;28;20070;-78
2022/06/18 10:19:20;;;;;;;8.90;4.78;;;32.00;99.90;;;;;;4954201;29;20098;-79
2022/06/18 10:22:03;;;;;;;6.78;4.95;;;32.20;99.90;;;;;;4936949;29;20138;-79
2022/06/18 10:24:51;;;;;;;8.52;4.80;;;32.10;99.90;;;;;;4953769;29;20500;-78
2022/06/18 10:27:44;;;;;;;8.38;5.03;;;32.20;99.90;;;;;;4954424;29;20114;-79
2022/06/18 10:30:45;;;;;;;9.95;5.20;;;32.10;99.90;;;;;;4952130;28;20126;-78
2022/06/18 10:33:27;;;;;;;8.20;4.97;;;32.20;99.90;;;;;;4948803;28;20043;-78
2022/06/18 10:36:24;;;;;;;7.97;5.38;;;32.30;99.90;;;;;;4954226;29;20106;-79
2022/06/18 10:39:17;;;;;;;9.07;5.32;;;32.60;99.90;;;;;;4941462;29;20508;-79
2022/06/18 10:41:51;;;;;;;8.80;5.97;;;32.60;99.90;;;;;;4950638;28;20030;-78
2022/06/18 10:44:40;;;;;;;7.28;5.50;;;32.70;99.90;;;;;;4954211;29;20540;-79
2022/06/18 10:47:10;;;;;;;8.40;5.43;;;32.90;99.90;;;;;;4953437;29;20035;-79
2022/06/18 10:49:35;;;;;;;6.60;5.22;;;33.10;99.90;;;;;;4954774;29;20114;-78
2022/06/18 10:52:02;;;;;;;7.45;5.70;;;32.90;99.90;;;;;;4953902;29;20118;-79
2022/06/18 10:54:32;;;;;;;7.57;5.13;;;32.90;99.90;;;;;;4953540;29;20078;-78
2022/06/18 10:56:58;;;;;;;7.95;5.47;;;33.00;99.90;;;;;;4953731;29;20054;-78
2022/06/18 10:59:36;;;;;;;9.02;5.55;;;33.30;99.90;;;;;;4952537;29;20505;-78
2022/06/18 11:02:34;;;;;;;9.27;5.90;;;33.40;99.90;;;;;;4958198;28;20123;-79
2022/06/18 11:05:04;;;;;;;7.97;5.57;;;33.40;99.90;;;;;;4951164;29;20042;-78
2022/06/18 11:07:33;;;;;;;9.43;5.75;;;33.40;99.90;;;;;;4952246;29;20031;-78
2022/06/18 11:10:06;;;;;;;7.07;5.68;;;33.60;99.90;;;;;;4952221;28;20027;-77
2022/06/18 11:12:39;;;;;;;11.43;5.63;;;33.80;99.90;;;;;;4951218;28;20027;-77
2022/06/18 11:15:22;;;;;;;7.68;6.00;;;33.60;99.90;;;;;;4957796;28;20032;-79
2022/06/18 11:17:48;;;;;;;8.10;5.30;;;33.40;99.90;;;;;;4952643;28;20024;-78
2022/06/18 11:20:24;;;;;;;6.40;5.57;;;33.60;99.90;;;;;;4955373;28;20039;-79
2022/06/18 11:22:58;;;;;;;9.73;5.35;;;33.70;99.90;;;;;;4952873;28;20027;-79
2022/06/18 11:25:26;;;;;;;8.60;5.82;;;33.70;99.90;;;;;;4936396;28;20114;-76
2022/06/18 11:27:57;;;;;;;6.10;5.55;;;33.80;99.90;;;;;;4950242;28;20031;-79
2022/06/18 11:30:34;;;;;;;9.50;5.95;;;34.10;99.90;;;;;;4959217;28;20054;-79
2022/06/18 11:33:02;;;;;;;8.30;5.95;;;34.10;99.90;;;;;;4950449;28;20098;-79
2022/06/18 11:35:35;;;;;;;10.23;5.70;;;33.90;99.90;;;;;;4952931;29;20023;-78
2022/06/18 11:38:04;;;;;;;11.57;5.28;;;33.90;99.90;;;;;;4952265;29;20039;-79
2022/06/18 11:40:30;;;;;;;8.38;5.93;;;33.90;99.90;;;;;;4951857;29;20031;-78
2022/06/18 11:43:33;;;;;;;7.78;5.82;;;33.90;99.90;;;;;;4951927;29;20035;-79
2022/06/18 11:46:05;;;;;;;10.20;5.88;;;34.00;99.90;;;;;;4938406;28;20050;-76
2022/06/18 11:48:52;;;;;;;8.70;5.75;;;34.30;99.90;;;;;;4951132;29;20102;-79
2022/06/18 11:51:42;;;;;;;11.32;6.13;;;34.60;99.90;;;;;;4952658;29;20038;-79
2022/06/18 11:54:11;;;;;;;10.98;6.05;;;34.40;99.90;;;;;;4952705;29;20515;-79
2022/06/18 11:57:13;;;;;;;9.82;6.25;;;34.60;99.90;;;;;;4952959;29;20038;-79
2022/06/18 11:59:49;;;;;;;9.90;6.68;;;35.10;99.90;;;;;;4936878;28;20071;-79
2022/06/18 12:02:53;;;;;;;10.73;6.32;;;35.00;99.90;;;;;;4952947;29;20023;-79
2022/06/18 12:05:47;;;;;;;10.32;6.53;;;35.00;99.90;;;;;;4948288;28;20508;-79
2022/06/18 12:08:19;;;;;;;9.00;6.43;;;35.70;99.90;;;;;;4857772;29;20034;-79
2022/06/18 12:11:00;;;;;;;10.32;7.00;;;36.10;99.90;;;;;;4856828;29;20049;-79
2022/06/18 12:13:38;;;;;;;9.38;6.53;;;36.80;99.90;;;;;;4857112;29;20046;-79
2022/06/18 12:16:25;;;;;;;8.45;6.93;;;38.50;99.90;;;;;;4857078;29;20468;-77
2022/06/18 12:19:19;;;;;;;12.25;6.70;;;40.00;99.90;;;;;;4857305;29;20053;-79
2022/06/18 12:22:04;;;;;;;9.10;6.63;;;39.30;99.90;;;;;;4857130;29;20066;-79
2022/06/18 12:25:06;;;;;;;9.80;6.70;;;40.20;99.90;;;;;;4857453;29;20038;-79
2022/06/18 12:27:38;;;;;;;8.43;6.82;;;41.30;99.90;;;;;;4857523;29;20134;-78
2022/06/18 12:30:20;;;;;;;7.88;7.07;;;41.30;99.90;;;;;;4856135;29;20080;-79
2022/06/18 12:33:01;;;;;;;14.43;6.85;;;41.40;99.90;;;;;;4857321;29;20045;-79
2022/06/18 12:35:44;;;;;;;10.70;7.38;;;42.00;99.90;;;;;;4857066;29;20030;-79
2022/06/18 12:38:31;;;;;;;8.27;6.68;;;41.80;99.90;;;;;;4857490;29;20034;-78
2022/06/18 12:41:02;;;;;;;9.10;6.95;;;41.40;99.90;;;;;;4842643;29;20046;-78
2022/06/18 12:43:54;;;;;;;11.07;7.10;;;41.40;99.90;;;;;;4854630;29;20507;-79
2022/06/18 12:46:36;;;;;;;8.07;6.40;;;40.50;99.90;;;;;;4948632;28;20039;-79
2022/06/18 12:49:08;;;;;;;9.50;6.80;;;40.00;99.90;;;;;;4951749;29;20035;-79
2022/06/18 12:51:49;;;;;;;10.88;6.25;;;40.40;99.90;;;;;;4952173;29;20481;-79
2022/06/18 12:54:34;;;;;;;8.13;6.55;;;40.40;99.90;;;;;;4951533;29;20035;-77
2022/06/18 12:57:24;;;;;;;8.82;6.60;;;40.30;99.90;;;;;;4952022;29;20089;-80
2022/06/18 13:00:11;;;;;;;11.18;6.80;;;39.60;99.90;;;;;;4938658;28;20404;-80
2022/06/18 13:03:05;;;;;;;7.18;6.28;;;40.40;99.90;;;;;;4937887;29;20400;-80
2022/06/18 13:05:49;;;;;;;9.68;6.35;;;41.10;99.90;;;;;;4936873;29;20741;-79
2022/06/18 13:08:52;;;;;;;7.78;6.97;;;41.10;99.90;;;;;;4950434;29;20028;-79
2022/06/18 13:11:44;;;;;;;8.98;7.30;;;40.80;99.90;;;;;;4949533;28;20035;-79
2022/06/18 13:14:31;;;;;;;10.10;7.35;;;40.10;99.90;;;;;;4857200;29;20053;-79
2022/06/18 13:17:05;;;;;;;7.60;6.70;;;39.50;99.90;;;;;;4853978;29;20040;-79
2022/06/18 13:19:42;;;;;;;8.63;6.47;;;39.70;99.90;;;;;;4856803;29;20444;-80
2022/06/18 13:22:08;;;;;;;10.65;7.13;;;39.50;99.90;;;;;;4856829;29;20026;-80
2022/06/18 13:30:29;;;;;;;8.30;7.57;;;40.10;99.90;;;;;;4860112;29;20134;-82
2022/06/18 13:33:16;;;;;;;9.60;7.32;;;40.10;99.90;;;;;;4860197;29;20045;-81